createdAt,value
2018-11-29T00:00:28.389Z,-0.90
2018-11-29T00:02:56.561Z,-0.90
2018-11-29T00:05:24.762Z,-0.90
2018-11-29T00:07:53.119Z,-0.90
2018-11-29T00:10:21.622Z,-0.90
2018-11-29T00:12:49.841Z,-0.90
2018-11-29T00:15:18.309Z,-0.90
2018-11-29T00:17:46.616Z,-0.90
2018-11-29T00:20:15.564Z,-0.90
2018-11-29T00:22:44.482Z,-0.80
2018-11-29T00:25:13.479Z,-0.80
2018-11-29T00:27:42.512Z,-0.80
2018-11-29T00:30:26.725Z,-0.80
2018-11-29T00:32:55.530Z,-0.80
2018-11-29T00:35:23.717Z,-0.80
2018-11-29T00:37:52.167Z,-0.80
2018-11-29T00:40:22.307Z,-0.80
2018-11-29T00:42:50.561Z,-0.80
2018-11-29T00:45:20.805Z,-0.80
2018-11-29T00:47:49.187Z,-0.80
2018-11-29T00:50:17.930Z,-0.80
2018-11-29T00:55:24.248Z,-0.80
2018-11-29T00:57:52.693Z,-0.80
2018-11-29T01:00:22.687Z,-0.80
2018-11-29T01:02:50.927Z,-0.80
2018-11-29T01:05:18.979Z,-0.80
2018-11-29T01:07:47.181Z,-0.80
2018-11-29T01:10:16.197Z,-0.80
2018-11-29T01:12:44.851Z,-0.90
2018-11-29T01:15:15.467Z,-0.80
2018-11-29T01:17:44.171Z,-0.90
2018-11-29T01:20:15.110Z,-0.90
2018-11-29T01:22:43.471Z,-0.90
2018-11-29T01:25:13.206Z,-0.90
2018-11-29T01:27:41.693Z,-0.90
2018-11-29T01:30:13.336Z,-0.90
2018-11-29T01:32:41.400Z,-0.90
2018-11-29T01:35:10.258Z,-0.90
2018-11-29T01:37:38.196Z,-0.90
2018-11-29T01:40:09.261Z,-0.90
2018-11-29T01:42:37.193Z,-1.00
2018-11-29T01:45:05.379Z,-0.90
2018-11-29T01:47:33.362Z,-0.90
2018-11-29T01:50:01.402Z,-1.00
2018-11-29T01:52:29.318Z,-1.00
2018-11-29T01:54:57.255Z,-1.00
2018-11-29T01:57:25.215Z,-1.00
2018-11-29T01:59:53.181Z,-1.00
2018-11-29T02:02:21.122Z,-1.00
2018-11-29T02:04:49.075Z,-1.00
2018-11-29T02:07:17.028Z,-1.00
2018-11-29T02:09:45.010Z,-1.00
2018-11-29T02:12:12.990Z,-1.00
2018-11-29T02:14:40.918Z,-1.00
2018-11-29T02:17:08.871Z,-1.00
2018-11-29T02:19:36.822Z,-1.00
2018-11-29T02:22:05.009Z,-1.00
2018-11-29T02:24:32.931Z,-1.00
2018-11-29T02:27:00.903Z,-1.00
2018-11-29T02:29:28.826Z,-1.00
2018-11-29T02:31:56.759Z,-1.00
2018-11-29T02:34:24.711Z,-1.00
2018-11-29T02:36:52.695Z,-1.00
2018-11-29T02:39:20.627Z,-1.00
2018-11-29T02:41:48.594Z,-1.00
2018-11-29T02:44:16.602Z,-1.00
2018-11-29T02:46:44.607Z,-1.00
2018-11-29T02:49:12.562Z,-1.00
2018-11-29T02:51:40.466Z,-1.10
2018-11-29T02:54:08.407Z,-1.10
2018-11-29T02:56:36.422Z,-1.20
2018-11-29T02:59:04.386Z,-1.20
2018-11-29T03:01:32.326Z,-1.20
2018-11-29T03:04:00.255Z,-1.30
2018-11-29T03:06:28.251Z,-1.30
2018-11-29T03:08:56.268Z,-1.40
2018-11-29T03:11:24.506Z,-1.40
2018-11-29T03:13:52.815Z,-1.50
2018-11-29T03:16:20.760Z,-1.50
2018-11-29T03:18:49.161Z,-1.50
2018-11-29T03:21:17.039Z,-1.50
2018-11-29T03:23:45.010Z,-1.50
2018-11-29T03:26:12.975Z,-1.50
2018-11-29T03:28:40.943Z,-1.50
2018-11-29T03:31:09.211Z,-1.50
2018-11-29T03:33:37.827Z,-1.50
2018-11-29T03:36:06.046Z,-1.50
2018-11-29T03:38:34.196Z,-1.60
2018-11-29T03:41:02.385Z,-1.60
2018-11-29T03:43:30.657Z,-1.70
2018-11-29T03:45:59.070Z,-1.60
2018-11-29T03:48:27.205Z,-1.60
2018-11-29T03:50:55.400Z,-1.60
2018-11-29T03:53:24.019Z,-1.60
2018-11-29T03:55:52.471Z,-1.70
2018-11-29T03:58:20.827Z,-1.70
2018-11-29T04:00:49.122Z,-1.80
2018-11-29T04:03:17.089Z,-1.80
2018-11-29T04:05:45.148Z,-1.80
2018-11-29T04:08:13.323Z,-1.90
2018-11-29T04:10:41.375Z,-1.90
2018-11-29T04:13:09.694Z,-1.90
2018-11-29T04:15:37.825Z,-1.90
2018-11-29T04:18:06.554Z,-1.90
2018-11-29T04:20:34.687Z,-1.90
2018-11-29T04:23:02.888Z,-1.90
2018-11-29T04:25:30.962Z,-1.90
2018-11-29T04:27:59.139Z,-1.80
2018-11-29T04:30:27.970Z,-1.80
2018-11-29T04:32:56.896Z,-1.80
2018-11-29T04:35:24.933Z,-1.80
2018-11-29T04:37:53.143Z,-1.80
2018-11-29T04:40:21.416Z,-1.80
2018-11-29T04:42:49.707Z,-1.80
2018-11-29T04:45:18.221Z,-1.80
2018-11-29T04:47:47.067Z,-1.80
2018-11-29T04:50:16.063Z,-1.90
2018-11-29T04:52:44.166Z,-1.90
2018-11-29T04:55:13.762Z,-1.90
2018-11-29T04:57:42.039Z,-1.90
2018-11-29T05:00:13.517Z,-1.90
2018-11-29T05:02:41.846Z,-1.90
2018-11-29T05:05:10.723Z,-1.90
2018-11-29T05:07:38.932Z,-1.90
2018-11-29T05:10:09.621Z,-1.90
2018-11-29T05:12:37.714Z,-2.00
2018-11-29T05:15:07.606Z,-2.10
2018-11-29T05:17:35.954Z,-2.10
2018-11-29T05:20:04.594Z,-2.20
2018-11-29T05:22:32.651Z,-2.30
2018-11-29T05:25:00.723Z,-2.20
2018-11-29T05:27:28.781Z,-2.20
2018-11-29T05:29:57.598Z,-2.30
2018-11-29T05:32:25.894Z,-2.30
2018-11-29T05:34:54.020Z,-2.40
2018-11-29T05:37:22.980Z,-2.40
2018-11-29T05:39:52.407Z,-2.50
2018-11-29T05:42:20.639Z,-2.40
2018-11-29T05:44:48.738Z,-2.40
2018-11-29T05:47:16.847Z,-2.40
2018-11-29T05:49:44.899Z,-2.50
2018-11-29T05:52:19.455Z,-2.50
2018-11-29T05:54:47.700Z,-2.60
2018-11-29T05:57:15.798Z,-2.70
2018-11-29T05:59:43.846Z,-2.70
2018-11-29T06:02:11.957Z,-2.80
2018-11-29T06:04:40.171Z,-2.80
2018-11-29T06:07:08.474Z,-2.80
2018-11-29T06:09:36.728Z,-2.80
2018-11-29T06:12:05.058Z,-2.80
2018-11-29T06:14:34.246Z,-2.80
2018-11-29T06:17:02.476Z,-2.70
2018-11-29T06:19:30.591Z,-2.70
2018-11-29T06:21:58.846Z,-2.80
2018-11-29T06:24:26.940Z,-2.70
2018-11-29T06:26:54.978Z,-2.80
2018-11-29T06:29:23.269Z,-2.90
2018-11-29T06:31:51.323Z,-2.90
2018-11-29T06:34:19.419Z,-2.90
2018-11-29T06:36:47.561Z,-3.00
2018-11-29T06:39:15.658Z,-3.00
2018-11-29T06:41:43.819Z,-3.10
2018-11-29T06:44:11.910Z,-3.10
2018-11-29T06:46:40.161Z,-3.10
2018-11-29T06:49:08.228Z,-3.20
2018-11-29T06:51:36.619Z,-3.20
2018-11-29T06:54:04.776Z,-3.20
2018-11-29T06:56:32.983Z,-3.20
2018-11-29T06:59:01.217Z,-3.20
2018-11-29T07:01:29.522Z,-3.20
2018-11-29T07:03:57.568Z,-3.20
2018-11-29T07:06:25.762Z,-3.10
2018-11-29T07:08:54.035Z,-3.10
2018-11-29T07:11:22.298Z,-3.10
2018-11-29T07:13:50.815Z,-3.20
2018-11-29T07:16:19.281Z,-3.20
2018-11-29T07:18:47.462Z,-3.30
2018-11-29T07:21:26.658Z,-3.30
2018-11-29T07:23:54.845Z,-3.30
2018-11-29T07:26:23.910Z,-3.30
2018-11-29T07:28:52.225Z,-3.10
2018-11-29T07:31:20.515Z,-3.00
2018-11-29T07:33:48.875Z,-2.90
2018-11-29T07:36:17.180Z,-2.90
2018-11-29T07:38:45.537Z,-2.90
2018-11-29T07:41:13.886Z,-2.80
2018-11-29T07:43:42.240Z,-2.90
2018-11-29T07:46:10.653Z,-2.80
2018-11-29T07:48:38.791Z,-2.70
2018-11-29T07:51:07.055Z,-2.70
2018-11-29T07:53:35.466Z,-2.70
2018-11-29T07:56:03.818Z,-2.80
2018-11-29T07:58:32.119Z,-2.80
2018-11-29T08:01:00.423Z,-2.70
2018-11-29T08:03:28.573Z,-2.70
2018-11-29T08:05:56.870Z,-2.60
2018-11-29T08:08:25.252Z,-2.50
2018-11-29T08:10:53.422Z,-2.60
2018-11-29T08:13:21.491Z,-2.50
2018-11-29T08:15:49.776Z,-2.20
2018-11-29T08:18:18.143Z,-2.50
2018-11-29T08:20:46.423Z,-2.60
2018-11-29T08:23:14.816Z,-2.70
2018-11-29T08:25:42.967Z,-2.80
2018-11-29T08:28:11.156Z,-2.80
2018-11-29T08:30:39.218Z,-2.70
2018-11-29T08:33:07.265Z,-2.90
2018-11-29T08:35:35.560Z,-2.80
2018-11-29T08:38:03.851Z,-2.70
2018-11-29T08:40:31.911Z,-2.60
2018-11-29T08:43:00.054Z,-2.70
2018-11-29T08:45:28.277Z,-2.60
2018-11-29T08:47:56.462Z,-2.60
2018-11-29T08:50:24.682Z,-2.60
2018-11-29T08:52:52.905Z,-2.60
2018-11-29T08:55:20.943Z,-2.50
2018-11-29T08:57:49.445Z,-2.40
2018-11-29T09:00:20.383Z,-2.40
2018-11-29T09:02:48.551Z,-2.20
2018-11-29T09:05:16.863Z,-2.10
2018-11-29T09:07:45.898Z,-2.20
2018-11-29T09:10:15.124Z,-2.20
2018-11-29T09:12:43.283Z,-2.10
2018-11-29T09:15:12.415Z,-2.10
2018-11-29T09:17:40.755Z,-1.90
2018-11-29T09:20:23.672Z,-1.80
2018-11-29T09:22:52.103Z,-1.70
2018-11-29T09:25:21.328Z,-1.70
2018-11-29T09:27:49.524Z,-1.70
2018-11-29T09:30:18.605Z,-1.80
2018-11-29T09:32:47.944Z,-1.70
2018-11-29T09:35:16.290Z,-1.70
2018-11-29T09:37:44.555Z,-1.80
2018-11-29T09:40:16.869Z,-1.90
2018-11-29T09:42:45.272Z,-2.00
2018-11-29T09:45:18.329Z,-1.80
2018-11-29T09:47:47.716Z,-1.80
2018-11-29T09:50:16.508Z,-1.50
2018-11-29T09:52:44.559Z,-1.40
2018-11-29T09:55:13.706Z,-1.40
2018-11-29T09:57:42.249Z,-1.50
2018-11-29T10:00:13.300Z,-1.50
2018-11-29T10:02:42.069Z,-1.40
2018-11-29T10:05:11.179Z,-1.40
2018-11-29T10:07:39.328Z,-1.50
2018-11-29T10:10:09.342Z,-1.50
2018-11-29T10:12:37.611Z,-1.30
2018-11-29T10:15:07.942Z,-1.10
2018-11-29T10:17:36.237Z,-1.10
2018-11-29T10:20:06.088Z,-1.00
2018-11-29T10:22:34.323Z,-1.10
2018-11-29T10:25:02.478Z,-1.10
2018-11-29T10:27:30.563Z,-0.80
2018-11-29T10:29:58.672Z,-0.70
2018-11-29T10:32:26.917Z,-0.60
2018-11-29T10:34:55.162Z,-0.60
2018-11-29T10:37:23.479Z,-0.70
2018-11-29T10:39:51.534Z,-0.70
2018-11-29T10:42:20.522Z,-0.70
2018-11-29T10:44:48.653Z,-0.60
2018-11-29T10:47:16.847Z,-0.60
2018-11-29T10:49:45.068Z,-0.60
2018-11-29T10:52:13.410Z,-0.70
2018-11-29T10:54:41.574Z,-0.70
2018-11-29T10:57:09.686Z,-0.70
2018-11-29T10:59:37.961Z,-0.70
2018-11-29T11:02:17.915Z,-0.70
2018-11-29T11:04:46.144Z,-0.70
2018-11-29T11:07:14.460Z,-0.60
2018-11-29T11:09:42.726Z,-0.50
2018-11-29T11:12:10.808Z,-0.50
2018-11-29T11:14:39.096Z,-0.50
2018-11-29T11:17:08.070Z,-0.50
2018-11-29T11:19:36.310Z,-0.40
2018-11-29T11:22:04.630Z,-0.40
2018-11-29T11:24:33.092Z,-0.40
2018-11-29T11:27:01.267Z,-0.30
2018-11-29T11:29:29.345Z,-0.30
2018-11-29T11:31:57.723Z,-0.30
2018-11-29T11:34:26.405Z,-0.30
2018-11-29T11:36:54.448Z,-0.20
2018-11-29T11:39:22.565Z,-0.10
2018-11-29T11:41:50.796Z,-0.10
2018-11-29T11:44:19.003Z,-0.10
2018-11-29T11:46:47.676Z,0.00
2018-11-29T11:50:52.419Z,0.10
2018-11-29T11:53:20.574Z,0.20
2018-11-29T11:55:53.512Z,0.10
2018-11-29T11:58:17.119Z,0.10
2018-11-29T12:00:45.326Z,0.20
2018-11-29T12:03:14.587Z,0.20
2018-11-29T12:05:42.955Z,0.30
2018-11-29T12:08:11.278Z,0.30
2018-11-29T12:10:40.637Z,0.10
2018-11-29T12:13:09.178Z,0.00
2018-11-29T12:15:37.725Z,0.10
2018-11-29T12:18:10.517Z,0.20
2018-11-29T12:20:38.688Z,0.20
2018-11-29T12:23:07.446Z,0.10
2018-11-29T12:25:35.658Z,0.20
2018-11-29T12:28:03.920Z,0.30
2018-11-29T12:30:34.473Z,0.30
2018-11-29T12:33:03.678Z,0.20
2018-11-29T12:35:32.042Z,0.30
2018-11-29T12:38:00.060Z,0.30
2018-11-29T12:40:28.261Z,0.20
2018-11-29T12:42:56.635Z,0.30
2018-11-29T12:45:24.818Z,0.40
2018-11-29T12:47:53.102Z,0.40
2018-11-29T12:50:24.278Z,0.40
2018-11-29T12:52:52.637Z,0.30
2018-11-29T12:55:21.571Z,0.40
2018-11-29T12:58:04.648Z,0.50
2018-11-29T13:00:20.199Z,0.50
2018-11-29T13:02:52.467Z,0.40
2018-11-29T13:05:20.528Z,0.40
2018-11-29T13:07:48.749Z,0.50
2018-11-29T13:10:18.829Z,0.40
2018-11-29T13:12:46.930Z,0.50
2018-11-29T13:15:18.257Z,0.50
2018-11-29T13:17:46.350Z,0.60
2018-11-29T13:20:16.348Z,0.50
2018-11-29T13:22:44.518Z,0.50
2018-11-29T13:25:14.038Z,0.40
2018-11-29T13:27:42.192Z,0.40
2018-11-29T13:30:12.574Z,0.60
2018-11-29T13:32:40.898Z,0.60
2018-11-29T13:35:11.003Z,0.70
2018-11-29T13:37:39.188Z,0.70
2018-11-29T13:40:10.228Z,0.40
2018-11-29T13:42:38.559Z,0.60
2018-11-29T13:45:09.170Z,0.50
2018-11-29T13:47:37.827Z,0.50
2018-11-29T13:50:09.175Z,0.40
2018-11-29T13:52:37.338Z,0.30
2018-11-29T13:55:06.498Z,0.20
2018-11-29T13:57:34.718Z,0.20
2018-11-29T14:00:03.095Z,0.30
2018-11-29T14:02:31.132Z,0.20
2018-11-29T14:04:59.230Z,0.30
2018-11-29T14:07:27.286Z,0.30
2018-11-29T14:09:55.344Z,0.20
2018-11-29T14:12:23.425Z,0.20
2018-11-29T14:14:51.513Z,0.10
2018-11-29T14:17:19.551Z,0.00
2018-11-29T14:19:47.634Z,0.00
2018-11-29T14:22:15.806Z,-0.10
2018-11-29T14:24:43.996Z,-0.20
2018-11-29T14:27:12.278Z,-0.10
2018-11-29T14:29:40.747Z,-0.20
2018-11-29T14:32:09.028Z,-0.30
2018-11-29T14:34:37.194Z,-0.40
2018-11-29T14:37:05.605Z,-0.40
2018-11-29T14:39:33.635Z,-0.40
2018-11-29T14:42:02.591Z,-0.50
2018-11-29T14:44:30.943Z,-0.50
2018-11-29T14:46:58.908Z,-0.50
2018-11-29T14:49:26.944Z,-0.60
2018-11-29T14:51:55.006Z,-0.70
2018-11-29T14:55:15.642Z,-0.70
2018-11-29T14:57:43.903Z,-0.80
2018-11-29T15:00:12.901Z,-0.90
2018-11-29T15:02:41.365Z,-0.90
2018-11-29T15:05:14.022Z,-1.00
2018-11-29T15:07:42.155Z,-1.00
2018-11-29T15:10:10.542Z,-1.10
2018-11-29T15:12:38.759Z,-1.10
2018-11-29T15:15:08.990Z,-1.20
2018-11-29T15:17:38.468Z,-1.20
2018-11-29T15:20:10.322Z,-1.30
2018-11-29T15:22:38.518Z,-1.30
2018-11-29T15:25:07.753Z,-1.40
2018-11-29T15:27:35.995Z,-1.40
2018-11-29T15:30:09.213Z,-1.40
2018-11-29T15:32:37.362Z,-1.40
2018-11-29T15:35:06.792Z,-1.50
2018-11-29T15:37:35.823Z,-1.50
2018-11-29T15:40:05.092Z,-1.50
2018-11-29T15:42:33.597Z,-1.50
2018-11-29T15:45:01.812Z,-1.60
2018-11-29T15:47:30.066Z,-1.50
2018-11-29T15:50:00.086Z,-1.50
2018-11-29T15:52:29.918Z,-1.50
2018-11-29T15:55:06.613Z,-1.50
2018-11-29T15:57:36.521Z,-1.50
2018-11-29T16:00:09.600Z,-1.60
2018-11-29T16:02:37.846Z,-1.60
2018-11-29T16:05:07.121Z,-1.70
2018-11-29T16:07:35.535Z,-1.70
2018-11-29T16:10:04.159Z,-1.70
2018-11-29T16:12:37.239Z,-1.70
2018-11-29T16:15:07.419Z,-1.70
2018-11-29T16:17:35.736Z,-1.70
2018-11-29T16:20:04.870Z,-1.70
2018-11-29T16:22:33.162Z,-1.70
2018-11-29T16:25:01.547Z,-1.70
2018-11-29T16:27:29.684Z,-1.70
2018-11-29T16:29:57.810Z,-1.80
2018-11-29T16:32:25.910Z,-1.80
2018-11-29T16:34:54.048Z,-1.80
2018-11-29T16:37:22.159Z,-1.80
2018-11-29T16:39:50.403Z,-1.80
2018-11-29T16:42:18.606Z,-1.80
2018-11-29T16:44:46.611Z,-1.80
2018-11-29T16:47:15.250Z,-1.80
2018-11-29T16:49:43.988Z,-1.80
2018-11-29T16:52:12.277Z,-1.80
2018-11-29T16:54:40.374Z,-1.80
2018-11-29T16:57:08.448Z,-1.80
2018-11-29T16:59:36.705Z,-1.80
2018-11-29T17:02:05.126Z,-1.90
2018-11-29T17:04:33.462Z,-1.90
2018-11-29T17:07:01.683Z,-1.90
2018-11-29T17:09:29.719Z,-1.90
2018-11-29T17:12:00.177Z,-1.90
2018-11-29T17:14:26.385Z,-1.90
2018-11-29T17:16:54.534Z,-1.90
2018-11-29T17:19:22.711Z,-1.90
2018-11-29T17:21:51.037Z,-1.80
2018-11-29T17:24:19.488Z,-1.90
2018-11-29T17:26:48.193Z,-1.90
2018-11-29T17:29:16.442Z,-1.90
2018-11-29T17:31:44.624Z,-1.90
2018-11-29T17:34:12.791Z,-1.90
2018-11-29T17:36:41.056Z,-1.90
2018-11-29T17:39:09.515Z,-1.90
2018-11-29T17:41:37.611Z,-1.90
2018-11-29T17:44:06.089Z,-1.90
2018-11-29T17:46:34.454Z,-1.90
2018-11-29T17:49:03.046Z,-1.90
2018-11-29T17:51:31.206Z,-2.00
2018-11-29T17:53:59.519Z,-2.00
2018-11-29T17:56:27.766Z,-2.10
2018-11-29T17:58:56.047Z,-2.10
2018-11-29T18:01:24.238Z,-2.20
2018-11-29T18:03:52.287Z,-2.10
2018-11-29T18:06:20.479Z,-2.10
2018-11-29T18:08:48.854Z,-2.10
2018-11-29T18:11:16.886Z,-2.10
2018-11-29T18:13:45.920Z,-2.10
2018-11-29T18:16:14.767Z,-2.10
2018-11-29T18:18:42.875Z,-2.20
2018-11-29T18:21:11.139Z,-2.20
2018-11-29T18:23:39.430Z,-2.10
2018-11-29T18:26:08.544Z,-2.10
2018-11-29T18:28:36.761Z,-2.10
2018-11-29T18:31:06.015Z,-2.10
2018-11-29T18:33:34.708Z,-2.10
2018-11-29T18:36:04.230Z,-2.00
2018-11-29T18:38:32.586Z,-2.00
2018-11-29T18:41:00.725Z,-2.00
2018-11-29T18:43:30.473Z,-2.00
2018-11-29T18:45:58.692Z,-2.00
2018-11-29T18:48:28.941Z,-2.00
2018-11-29T18:50:56.950Z,-2.00
2018-11-29T18:53:25.499Z,-2.00
2018-11-29T18:55:54.041Z,-2.00
2018-11-29T18:58:22.121Z,-2.00
2018-11-29T19:00:50.402Z,-2.00
2018-11-29T19:03:18.696Z,-2.00
2018-11-29T19:05:46.675Z,-2.00
2018-11-29T19:08:14.625Z,-2.00
2018-11-29T19:10:42.595Z,-2.00
2018-11-29T19:13:11.646Z,-2.00
2018-11-29T19:15:40.398Z,-1.90
2018-11-29T19:18:10.726Z,-1.90
2018-11-29T19:20:38.231Z,-1.90
2018-11-29T19:23:06.238Z,-1.90
2018-11-29T19:25:34.528Z,-1.90
2018-11-29T19:28:02.462Z,-1.90
2018-11-29T19:30:31.055Z,-1.90
2018-11-29T19:33:32.404Z,-1.90
2018-11-29T19:36:00.378Z,-1.90
2018-11-29T19:38:28.298Z,-1.90
2018-11-29T19:40:56.243Z,-1.90
2018-11-29T19:43:24.662Z,-1.90
2018-11-29T19:45:52.609Z,-1.90
2018-11-29T19:48:20.638Z,-1.90
2018-11-29T19:50:48.538Z,-1.90
2018-11-29T19:53:19.878Z,-1.90
2018-11-29T19:55:49.046Z,-1.90
2018-11-29T19:58:18.602Z,-1.90
2018-11-29T20:00:47.760Z,-1.90
2018-11-29T20:03:15.702Z,-1.90
2018-11-29T20:05:43.902Z,-1.90
2018-11-29T20:08:12.522Z,-1.90
2018-11-29T20:10:41.618Z,-1.90
2018-11-29T20:13:11.373Z,-1.80
2018-11-29T20:15:42.646Z,-1.80
2018-11-29T20:18:11.713Z,-1.80
2018-11-29T20:20:39.694Z,-1.80
2018-11-29T20:23:08.814Z,-1.80
2018-11-29T20:25:36.791Z,-1.70
2018-11-29T20:28:05.217Z,-1.70
2018-11-29T20:30:33.343Z,-1.80
2018-11-29T20:33:01.399Z,-1.80
2018-11-29T20:35:29.394Z,-1.80
2018-11-29T20:37:57.626Z,-1.80
2018-11-29T20:40:27.834Z,-1.80
2018-11-29T20:42:58.886Z,-1.70
2018-11-29T20:45:29.385Z,-1.80
2018-11-29T20:47:57.563Z,-1.70
2018-11-29T20:50:27.018Z,-1.70
2018-11-29T20:52:56.531Z,-1.70
2018-11-29T20:55:28.784Z,-1.70
2018-11-29T20:57:57.470Z,-1.70
2018-11-29T21:00:26.654Z,-1.70
2018-11-29T21:02:55.014Z,-1.70
2018-11-29T21:05:23.880Z,-1.70
2018-11-29T21:07:56.135Z,-1.80
2018-11-29T21:10:25.203Z,-1.80
2018-11-29T21:12:53.408Z,-1.70
2018-11-29T21:15:21.718Z,-1.80
2018-11-29T21:17:49.974Z,-1.70
2018-11-29T21:20:19.194Z,-1.70
2018-11-29T21:22:50.310Z,-1.80
2018-11-29T21:25:19.751Z,-1.80
2018-11-29T21:27:47.798Z,-1.80
2018-11-29T21:30:16.494Z,-1.80
2018-11-29T21:32:45.177Z,-1.80
2018-11-29T21:35:15.341Z,-1.90
2018-11-29T21:37:43.780Z,-1.80
2018-11-29T21:40:16.423Z,-1.80
2018-11-29T21:42:44.630Z,-1.80
2018-11-29T21:45:12.874Z,-1.80
2018-11-29T21:47:41.465Z,-1.80
2018-11-29T21:50:09.631Z,-1.80
2018-11-29T21:52:37.763Z,-1.80
2018-11-29T21:55:06.626Z,-1.80
2018-11-29T21:57:34.534Z,-1.80
2018-11-29T22:00:02.789Z,-1.70
2018-11-29T22:02:30.751Z,-1.70
2018-11-29T22:04:58.890Z,-1.70
2018-11-29T22:07:27.054Z,-1.70
2018-11-29T22:09:55.062Z,-1.70
2018-11-29T22:12:23.034Z,-1.70
2018-11-29T22:14:50.959Z,-1.70
2018-11-29T22:17:19.263Z,-1.60
2018-11-29T22:19:47.410Z,-1.60
2018-11-29T22:22:15.527Z,-1.60
2018-11-29T22:24:43.664Z,-1.60
2018-11-29T22:27:11.779Z,-1.60
2018-11-29T22:29:39.919Z,-1.60
2018-11-29T22:32:08.610Z,-1.60
2018-11-29T22:34:36.978Z,-1.70
2018-11-29T22:37:05.261Z,-1.70
2018-11-29T22:39:33.543Z,-1.70
2018-11-29T22:42:01.907Z,-1.70
2018-11-29T22:44:30.115Z,-1.70
2018-11-29T22:46:59.207Z,-1.80
2018-11-29T22:49:28.316Z,-1.80
2018-11-29T22:51:56.632Z,-1.90
2018-11-29T22:54:24.731Z,-1.90
2018-11-29T22:56:52.799Z,-1.90
2018-11-29T22:59:20.947Z,-1.90
2018-11-29T23:01:51.633Z,-2.00
2018-11-29T23:04:22.519Z,-2.00
2018-11-29T23:06:50.573Z,-2.00
2018-11-29T23:09:18.575Z,-2.00
2018-11-29T23:11:46.575Z,-2.10
2018-11-29T23:14:14.574Z,-2.10
2018-11-29T23:16:42.598Z,-2.10
2018-11-29T23:19:10.678Z,-2.10
2018-11-29T23:21:39.137Z,-2.00
2018-11-29T23:24:07.111Z,-2.00
2018-11-29T23:26:35.114Z,-2.00
2018-11-29T23:29:03.030Z,-2.00
2018-11-29T23:31:31.058Z,-1.90
2018-11-29T23:33:58.998Z,-1.90
2018-11-29T23:36:26.980Z,-1.90
2018-11-29T23:38:55.113Z,-1.90
2018-11-29T23:41:23.083Z,-2.00
2018-11-29T23:43:51.376Z,-1.90
2018-11-29T23:46:19.630Z,-1.90
2018-11-29T23:48:47.591Z,-1.90
2018-11-29T23:51:15.877Z,-2.00
2018-11-29T23:53:44.042Z,-2.00
2018-11-29T23:56:12.324Z,-2.00
2018-11-29T23:58:40.604Z,-2.00
